createdAt,value
2018-03-31T00:00:12.927Z,5.70
2018-03-31T00:02:39.018Z,5.70
2018-03-31T00:05:05.892Z,5.60
2018-03-31T00:07:31.991Z,5.60
2018-03-31T00:09:58.819Z,5.50
2018-03-31T00:12:25.671Z,5.60
2018-03-31T00:14:51.767Z,5.50
2018-03-31T00:17:17.882Z,5.60
2018-03-31T00:19:43.986Z,5.80
2018-03-31T00:22:10.132Z,5.80
2018-03-31T00:24:36.256Z,5.90
2018-03-31T00:27:02.362Z,5.80
2018-03-31T00:29:28.508Z,5.80
2018-03-31T00:31:54.613Z,5.70
2018-03-31T00:34:20.729Z,5.60
2018-03-31T00:36:46.851Z,5.60
2018-03-31T00:39:12.954Z,5.60
2018-03-31T00:41:39.834Z,5.60
2018-03-31T00:44:05.941Z,5.60
2018-03-31T00:46:32.050Z,5.60
2018-03-31T00:48:58.878Z,5.40
2018-03-31T00:51:25.772Z,5.30
2018-03-31T00:53:51.915Z,5.20
2018-03-31T00:56:19.026Z,5.30
2018-03-31T00:58:45.635Z,5.20
2018-03-31T01:01:12.465Z,5.10
2018-03-31T01:03:39.594Z,5.10
2018-03-31T01:06:05.914Z,5.10
2018-03-31T01:08:32.012Z,5.00
2018-03-31T01:10:58.157Z,4.90
2018-03-31T01:13:24.286Z,4.80
2018-03-31T01:15:50.387Z,4.80
2018-03-31T01:18:16.542Z,4.80
2018-03-31T01:20:43.284Z,4.80
2018-03-31T01:23:09.379Z,4.90
2018-03-31T01:25:35.486Z,4.90
2018-03-31T01:28:02.354Z,4.80
2018-03-31T01:30:28.458Z,4.80
2018-03-31T01:32:55.303Z,4.90
2018-03-31T01:35:21.411Z,4.80
2018-03-31T01:37:48.266Z,4.80
2018-03-31T01:40:15.110Z,4.80
2018-03-31T01:42:41.960Z,4.80
2018-03-31T01:45:08.799Z,4.70
2018-03-31T01:47:35.650Z,4.80
2018-03-31T01:50:01.773Z,4.70
2018-03-31T01:52:28.610Z,4.80
2018-03-31T01:54:55.484Z,4.80
2018-03-31T01:57:22.933Z,4.70
2018-03-31T01:59:49.906Z,4.90
2018-03-31T02:02:16.010Z,4.90
2018-03-31T02:04:42.120Z,4.90
2018-03-31T02:07:08.243Z,4.90
2018-03-31T02:09:34.357Z,5.00
2018-03-31T02:12:01.263Z,4.90
2018-03-31T02:14:28.512Z,4.90
2018-03-31T02:16:54.620Z,5.00
2018-03-31T02:19:20.750Z,5.00
2018-03-31T02:21:46.855Z,5.00
2018-03-31T02:24:12.972Z,5.00
2018-03-31T02:26:39.062Z,5.10
2018-03-31T02:29:05.205Z,5.20
2018-03-31T02:31:32.056Z,5.10
2018-03-31T02:33:58.910Z,5.30
2018-03-31T02:36:25.031Z,5.20
2018-03-31T02:38:51.135Z,5.10
2018-03-31T02:41:17.994Z,5.20
2018-03-31T02:43:44.094Z,5.10
2018-03-31T02:46:10.991Z,5.20
2018-03-31T02:48:37.088Z,5.20
2018-03-31T02:51:03.195Z,5.20
2018-03-31T02:53:30.031Z,5.10
2018-03-31T02:55:56.166Z,5.10
2018-03-31T02:58:23.036Z,5.20
2018-03-31T03:00:49.136Z,5.20
2018-03-31T03:03:16.043Z,5.10
2018-03-31T03:05:42.175Z,5.10
2018-03-31T03:08:08.269Z,5.10
2018-03-31T03:10:35.391Z,5.10
2018-03-31T03:13:02.246Z,5.10
2018-03-31T03:15:28.411Z,5.10
2018-03-31T03:17:55.035Z,5.10
2018-03-31T03:20:21.166Z,5.10
2018-03-31T03:22:47.264Z,5.10
2018-03-31T03:25:13.376Z,5.20
2018-03-31T03:27:40.226Z,5.30
2018-03-31T03:30:06.337Z,5.30
2018-03-31T03:32:32.455Z,5.30
2018-03-31T03:34:58.547Z,5.20
2018-03-31T03:37:24.665Z,5.30
2018-03-31T03:39:50.758Z,5.20
2018-03-31T03:42:16.870Z,5.20
2018-03-31T03:44:43.740Z,5.00
2018-03-31T03:47:09.844Z,5.00
2018-03-31T03:49:35.951Z,4.90
2018-03-31T03:52:02.795Z,4.80
2018-03-31T03:54:29.650Z,4.90
2018-03-31T03:56:55.793Z,4.90
2018-03-31T03:59:22.928Z,5.00
2018-03-31T04:01:49.070Z,5.00
2018-03-31T04:04:15.210Z,5.10
2018-03-31T04:06:41.771Z,5.20
2018-03-31T04:09:07.874Z,5.20
2018-03-31T04:11:33.970Z,5.20
2018-03-31T04:14:00.074Z,5.10
2018-03-31T04:16:26.931Z,4.90
2018-03-31T04:18:53.794Z,4.90
2018-03-31T04:21:19.890Z,4.80
2018-03-31T04:23:46.751Z,4.90
2018-03-31T04:26:13.105Z,4.90
2018-03-31T04:28:40.239Z,4.90
2018-03-31T04:31:06.366Z,4.70
2018-03-31T04:33:32.467Z,4.70
2018-03-31T04:35:59.290Z,4.60
2018-03-31T04:38:25.418Z,4.50
2018-03-31T04:40:51.525Z,4.60
2018-03-31T04:43:18.662Z,4.50
2018-03-31T04:45:44.779Z,4.50
2018-03-31T04:48:11.940Z,4.60
2018-03-31T04:50:38.071Z,4.60
2018-03-31T04:53:04.222Z,4.60
2018-03-31T04:55:30.375Z,4.60
2018-03-31T04:57:57.231Z,4.50
2018-03-31T05:00:23.343Z,4.40
2018-03-31T05:02:50.230Z,4.50
2018-03-31T05:05:16.356Z,4.40
2018-03-31T05:07:42.505Z,4.50
2018-03-31T05:10:08.611Z,4.40
2018-03-31T05:12:34.766Z,4.50
2018-03-31T05:15:00.858Z,4.60
2018-03-31T05:17:26.962Z,4.50
2018-03-31T05:19:53.054Z,4.40
2018-03-31T05:22:19.922Z,4.20
2018-03-31T05:24:46.022Z,4.20
2018-03-31T05:27:12.882Z,4.10
2018-03-31T05:29:39.930Z,4.10
2018-03-31T05:32:06.781Z,4.00
2018-03-31T05:34:34.220Z,3.90
2018-03-31T05:37:00.338Z,3.90
2018-03-31T05:39:26.438Z,3.90
2018-03-31T05:41:52.539Z,3.90
2018-03-31T05:44:19.642Z,3.70
2018-03-31T05:46:46.510Z,3.80
2018-03-31T05:49:12.613Z,3.80
2018-03-31T05:51:39.457Z,4.10
2018-03-31T05:54:06.316Z,4.10
2018-03-31T05:56:32.435Z,4.10
2018-03-31T05:58:59.263Z,4.10
2018-03-31T06:01:25.385Z,4.10
2018-03-31T06:03:51.522Z,4.20
2018-03-31T06:06:18.418Z,4.20
2018-03-31T06:08:44.511Z,4.20
2018-03-31T06:11:10.603Z,4.00
2018-03-31T06:13:37.458Z,3.90
2018-03-31T06:16:04.309Z,3.90
2018-03-31T06:18:31.197Z,3.80
2018-03-31T06:20:57.288Z,3.80
2018-03-31T06:23:24.165Z,3.80
2018-03-31T06:25:50.279Z,3.80
2018-03-31T06:28:17.439Z,3.80
2018-03-31T06:30:43.533Z,3.80
2018-03-31T06:33:10.396Z,3.80
2018-03-31T06:35:36.519Z,3.80
2018-03-31T06:38:02.623Z,3.80
2018-03-31T06:40:29.454Z,3.70
2018-03-31T06:42:56.314Z,3.60
2018-03-31T06:45:22.415Z,3.60
2018-03-31T06:47:48.516Z,3.50
2018-03-31T06:50:14.632Z,3.50
2018-03-31T06:52:40.784Z,3.60
2018-03-31T06:55:06.886Z,3.50
2018-03-31T06:57:33.009Z,3.60
2018-03-31T06:59:59.130Z,3.50
2018-03-31T07:02:25.228Z,3.50
2018-03-31T07:04:51.323Z,3.60
2018-03-31T07:07:18.172Z,3.70
2018-03-31T07:09:45.011Z,3.80
2018-03-31T07:12:11.871Z,4.10
2018-03-31T07:14:37.979Z,4.10
2018-03-31T07:17:04.830Z,4.30
2018-03-31T07:19:31.711Z,4.30
2018-03-31T07:21:57.806Z,4.30
2018-03-31T07:24:24.672Z,4.10
2018-03-31T07:26:50.797Z,4.10
2018-03-31T07:29:16.898Z,4.10
2018-03-31T07:31:43.742Z,4.00
2018-03-31T07:34:11.620Z,4.10
2018-03-31T07:36:37.763Z,4.10
2018-03-31T07:39:03.894Z,4.30
2018-03-31T07:41:29.987Z,4.40
2018-03-31T07:43:56.826Z,4.60
2018-03-31T07:46:23.659Z,4.70
2018-03-31T07:48:50.522Z,4.70
2018-03-31T07:51:16.707Z,4.70
2018-03-31T07:53:42.805Z,4.60
2018-03-31T07:56:08.907Z,4.60
2018-03-31T07:58:35.001Z,4.60
2018-03-31T08:01:01.908Z,5.00
2018-03-31T08:03:27.964Z,5.00
2018-03-31T08:05:54.065Z,5.20
2018-03-31T08:08:20.186Z,5.30
2018-03-31T08:10:46.286Z,5.50
2018-03-31T08:13:12.391Z,5.50
2018-03-31T08:15:38.504Z,5.60
2018-03-31T08:18:05.339Z,5.60
2018-03-31T08:20:32.178Z,5.80
2018-03-31T08:22:58.289Z,5.80
2018-03-31T08:25:24.391Z,5.80
2018-03-31T08:27:50.498Z,5.90
2018-03-31T08:30:17.668Z,6.10
2018-03-31T08:32:43.735Z,6.00
2018-03-31T08:35:10.569Z,6.30
2018-03-31T08:37:36.663Z,6.30
2018-03-31T08:40:02.790Z,6.50
2018-03-31T08:42:28.887Z,6.70
2018-03-31T08:44:55.036Z,7.00
2018-03-31T08:47:21.179Z,7.10
2018-03-31T08:49:47.285Z,7.20
2018-03-31T08:52:13.407Z,7.10
2018-03-31T08:54:39.519Z,7.00
2018-03-31T08:57:05.665Z,7.10
2018-03-31T08:59:31.786Z,7.00
2018-03-31T09:01:57.889Z,7.10
2018-03-31T09:04:23.981Z,7.00
2018-03-31T09:06:50.083Z,6.80
2018-03-31T09:09:16.227Z,6.80
2018-03-31T09:11:42.914Z,6.90
2018-03-31T09:14:09.018Z,7.10
2018-03-31T09:16:35.860Z,7.10
2018-03-31T09:19:02.723Z,7.10
2018-03-31T09:21:28.825Z,7.10
2018-03-31T09:23:55.667Z,7.30
2018-03-31T09:26:21.775Z,7.30
2018-03-31T09:28:47.915Z,7.70
2018-03-31T09:31:14.795Z,8.00
2018-03-31T09:33:40.909Z,8.00
2018-03-31T09:36:08.038Z,8.00
2018-03-31T09:38:34.910Z,7.90
2018-03-31T09:41:01.019Z,7.90
2018-03-31T09:43:27.147Z,7.70
2018-03-31T09:45:53.255Z,7.60
2018-03-31T09:48:20.102Z,7.60
2018-03-31T09:50:46.954Z,7.80
2018-03-31T09:53:13.054Z,7.80
2018-03-31T09:55:39.163Z,8.00
2018-03-31T09:58:05.262Z,7.90
2018-03-31T10:00:35.313Z,8.10
2018-03-31T10:03:01.474Z,8.00
2018-03-31T10:05:27.552Z,8.00
2018-03-31T10:07:53.674Z,8.10
2018-03-31T10:10:20.557Z,8.00
2018-03-31T10:12:47.438Z,7.90
2018-03-31T10:15:13.539Z,7.90
2018-03-31T10:17:39.671Z,7.90
2018-03-31T10:20:05.826Z,8.00
2018-03-31T10:22:31.972Z,8.00
2018-03-31T10:24:58.086Z,7.70
2018-03-31T10:27:24.210Z,7.50
2018-03-31T10:29:50.324Z,7.60
2018-03-31T10:32:16.469Z,7.50
2018-03-31T10:34:42.586Z,7.60
2018-03-31T10:37:09.352Z,8.00
2018-03-31T10:39:36.942Z,8.90
2018-03-31T10:42:03.075Z,8.90
2018-03-31T10:44:29.184Z,9.30
2018-03-31T10:46:56.081Z,9.40
2018-03-31T10:49:22.214Z,9.40
2018-03-31T10:51:48.697Z,9.70
2018-03-31T10:54:15.574Z,10.20
2018-03-31T10:56:41.686Z,10.20
2018-03-31T10:59:07.786Z,10.10
2018-03-31T11:01:34.666Z,9.70
2018-03-31T11:04:00.782Z,9.70
2018-03-31T11:06:26.889Z,9.40
2018-03-31T11:08:52.992Z,9.30
2018-03-31T11:11:19.883Z,9.20
2018-03-31T11:13:46.006Z,9.10
2018-03-31T11:16:12.118Z,8.90
2018-03-31T11:18:38.218Z,8.80
2018-03-31T11:21:04.314Z,8.60
2018-03-31T11:23:30.474Z,8.70
2018-03-31T11:25:56.617Z,8.90
2018-03-31T11:28:22.738Z,9.20
2018-03-31T11:30:49.530Z,9.50
2018-03-31T11:33:15.671Z,9.60
2018-03-31T11:35:41.832Z,9.70
2018-03-31T11:38:07.938Z,9.60
2018-03-31T11:40:34.050Z,9.30
2018-03-31T11:43:00.898Z,8.60
2018-03-31T11:45:27.751Z,8.40
2018-03-31T11:47:54.952Z,8.40
2018-03-31T11:50:21.119Z,8.40
2018-03-31T11:52:47.200Z,8.40
2018-03-31T11:55:13.307Z,8.60
2018-03-31T11:57:39.427Z,8.80
2018-03-31T12:00:05.607Z,9.00
2018-03-31T12:02:31.732Z,9.20
2018-03-31T12:04:57.838Z,9.50
2018-03-31T12:07:23.988Z,9.80
2018-03-31T12:09:50.860Z,10.60
2018-03-31T12:12:17.018Z,10.60
2018-03-31T12:14:43.122Z,10.70
2018-03-31T12:17:09.246Z,10.80
2018-03-31T12:19:35.354Z,11.00
2018-03-31T12:22:02.239Z,11.00
2018-03-31T12:24:28.398Z,11.00
2018-03-31T12:26:54.530Z,11.10
2018-03-31T12:29:20.650Z,11.20
2018-03-31T12:31:46.754Z,11.30
2018-03-31T12:34:12.863Z,11.30
2018-03-31T12:36:38.989Z,11.40
2018-03-31T12:39:05.098Z,10.90
2018-03-31T12:41:31.210Z,11.00
2018-03-31T12:43:57.469Z,11.10
2018-03-31T12:46:23.569Z,11.20
2018-03-31T12:48:49.770Z,11.70
2018-03-31T12:51:15.874Z,12.20
2018-03-31T12:53:42.007Z,12.10
2018-03-31T12:56:08.121Z,12.20
2018-03-31T12:58:34.274Z,12.00
2018-03-31T13:01:00.417Z,11.80
2018-03-31T13:03:27.302Z,11.40
2018-03-31T13:05:53.399Z,11.40
2018-03-31T13:08:19.532Z,11.50
2018-03-31T13:10:45.643Z,11.70
2018-03-31T13:13:11.771Z,12.10
2018-03-31T13:15:37.880Z,12.20
2018-03-31T13:18:04.730Z,11.90
2018-03-31T13:20:32.610Z,11.60
2018-03-31T13:22:58.706Z,11.60
2018-03-31T13:25:24.816Z,11.60
2018-03-31T13:27:50.918Z,11.80
2018-03-31T13:30:17.028Z,11.60
2018-03-31T13:32:43.479Z,11.30
2018-03-31T13:35:09.579Z,11.20
2018-03-31T13:37:35.729Z,11.20
2018-03-31T13:40:01.827Z,11.50
2018-03-31T13:42:27.936Z,11.70
2018-03-31T13:44:54.807Z,11.30
2018-03-31T13:47:21.144Z,11.20
2018-03-31T13:49:48.006Z,10.60
2018-03-31T13:52:14.222Z,10.60
2018-03-31T13:54:40.322Z,10.50
2018-03-31T13:57:06.460Z,10.20
2018-03-31T13:59:32.598Z,10.30
2018-03-31T14:01:58.778Z,10.50
2018-03-31T14:04:25.638Z,10.50
2018-03-31T14:06:51.738Z,10.50
2018-03-31T14:09:17.846Z,10.60
2018-03-31T14:11:44.011Z,11.10
2018-03-31T14:14:10.160Z,11.30
2018-03-31T14:16:36.261Z,11.00
2018-03-31T14:19:03.095Z,11.20
2018-03-31T14:21:29.985Z,11.10
2018-03-31T14:23:56.106Z,11.10
2018-03-31T14:26:22.207Z,11.10
2018-03-31T14:28:48.343Z,11.10
2018-03-31T14:31:14.471Z,10.90
2018-03-31T14:33:40.588Z,11.00
2018-03-31T14:36:06.677Z,11.20
2018-03-31T14:38:32.790Z,11.30
2018-03-31T14:40:58.946Z,11.50
2018-03-31T14:43:25.820Z,11.50
2018-03-31T14:45:51.922Z,11.40
2018-03-31T14:48:18.782Z,11.80
2018-03-31T14:50:44.883Z,11.80
2018-03-31T14:53:11.762Z,11.80
2018-03-31T14:55:38.882Z,11.70
2018-03-31T14:58:05.859Z,11.30
2018-03-31T15:00:31.967Z,11.30
2018-03-31T15:02:58.110Z,11.00
2018-03-31T15:05:24.238Z,10.40
2018-03-31T15:07:50.351Z,10.20
2018-03-31T15:12:51.598Z,10.10
2018-03-31T15:15:17.719Z,9.90
2018-03-31T15:17:43.879Z,9.80
2018-03-31T15:20:09.982Z,9.80
2018-03-31T15:22:36.078Z,9.90
2018-03-31T15:25:02.923Z,9.70
2018-03-31T15:27:29.798Z,9.60
2018-03-31T15:29:55.939Z,9.60
2018-03-31T15:32:22.089Z,9.50
2018-03-31T15:34:48.240Z,9.60
2018-03-31T15:37:15.104Z,9.50
2018-03-31T15:39:41.199Z,9.40
2018-03-31T15:42:07.342Z,9.30
2018-03-31T15:44:34.661Z,9.20
2018-03-31T15:47:00.803Z,9.10
2018-03-31T15:49:26.922Z,9.10
2018-03-31T15:51:53.051Z,9.00
2018-03-31T15:54:19.152Z,9.00
2018-03-31T15:56:45.254Z,8.70
2018-03-31T15:59:12.380Z,8.60
2018-03-31T16:01:39.226Z,8.50
2018-03-31T16:04:06.124Z,8.30
2018-03-31T16:06:32.242Z,8.30
2018-03-31T16:08:58.342Z,8.20
2018-03-31T16:11:24.462Z,8.10
2018-03-31T16:13:50.595Z,8.10
2018-03-31T16:16:16.713Z,8.00
2018-03-31T16:18:42.806Z,8.00
2018-03-31T16:21:08.934Z,7.90
2018-03-31T16:23:35.039Z,7.80
2018-03-31T16:26:02.161Z,7.70
2018-03-31T16:28:28.263Z,7.80
2018-03-31T16:30:54.381Z,7.80
2018-03-31T16:33:21.216Z,7.70
2018-03-31T16:35:48.074Z,7.60
2018-03-31T16:38:14.174Z,7.60
2018-03-31T16:40:41.014Z,7.50
2018-03-31T16:43:07.859Z,7.60
2018-03-31T16:45:33.956Z,7.60
2018-03-31T16:48:00.062Z,7.70
2018-03-31T16:50:26.166Z,7.60
2018-03-31T16:52:52.306Z,7.60
2018-03-31T16:55:18.448Z,7.60
2018-03-31T16:57:44.618Z,7.50
2018-03-31T17:00:11.473Z,7.50
2018-03-31T17:02:39.331Z,7.50
2018-03-31T17:05:06.225Z,7.50
2018-03-31T17:07:32.324Z,7.50
2018-03-31T17:09:58.423Z,7.40
2018-03-31T17:12:25.278Z,7.50
2018-03-31T17:14:51.382Z,7.40
2018-03-31T17:17:17.482Z,7.40
2018-03-31T17:19:43.610Z,7.30
2018-03-31T17:22:09.745Z,7.30
2018-03-31T17:24:36.594Z,7.40
2018-03-31T17:27:02.706Z,7.30
2018-03-31T17:29:28.844Z,7.40
2018-03-31T17:31:56.438Z,7.40
2018-03-31T17:34:22.566Z,7.40
2018-03-31T17:36:48.717Z,7.50
2018-03-31T17:39:15.538Z,7.50
2018-03-31T17:41:41.654Z,7.40
2018-03-31T17:44:08.499Z,7.40
2018-03-31T17:46:35.354Z,7.30
2018-03-31T17:49:02.297Z,7.30
2018-03-31T17:51:28.431Z,7.30
2018-03-31T17:53:54.539Z,7.30
2018-03-31T17:56:20.634Z,7.30
2018-03-31T17:58:46.738Z,7.30
2018-03-31T18:01:12.875Z,7.20
2018-03-31T18:03:39.006Z,7.20
2018-03-31T18:06:05.139Z,7.10
2018-03-31T18:08:33.034Z,7.10
2018-03-31T18:10:59.143Z,7.10
2018-03-31T18:13:25.986Z,7.10
2018-03-31T18:15:52.930Z,7.00
2018-03-31T18:18:19.781Z,6.90
2018-03-31T18:20:46.661Z,6.80
2018-03-31T18:23:12.758Z,6.80
2018-03-31T18:25:39.607Z,6.70
2018-03-31T18:28:06.736Z,6.60
2018-03-31T18:30:33.591Z,6.60
2018-03-31T18:33:01.489Z,6.60
2018-03-31T18:35:27.631Z,6.60
2018-03-31T18:37:53.742Z,6.60
2018-03-31T18:40:20.019Z,6.50
2018-03-31T18:42:46.127Z,6.50
2018-03-31T18:45:12.230Z,6.50
2018-03-31T18:47:38.357Z,6.40
2018-03-31T18:50:05.163Z,6.30
2018-03-31T18:52:32.013Z,6.20
2018-03-31T18:54:58.122Z,6.20
2018-03-31T18:57:24.955Z,6.10
2018-03-31T18:59:51.789Z,6.10
2018-03-31T19:02:17.903Z,6.10
2018-03-31T19:04:44.028Z,6.10
2018-03-31T19:07:10.147Z,6.10
2018-03-31T19:09:36.266Z,5.90
2018-03-31T19:12:02.442Z,6.10
2018-03-31T19:14:28.631Z,5.90
2018-03-31T19:17:01.923Z,5.90
2018-03-31T19:19:28.016Z,5.90
2018-03-31T19:21:54.133Z,5.90
2018-03-31T19:24:20.786Z,5.80
2018-03-31T19:26:46.927Z,5.80
2018-03-31T19:29:14.086Z,5.80
2018-03-31T19:31:40.938Z,5.70
2018-03-31T19:34:07.131Z,5.70
2018-03-31T19:36:33.199Z,5.70
2018-03-31T19:39:00.842Z,5.50
2018-03-31T19:41:26.964Z,5.50
2018-03-31T19:43:53.080Z,5.60
2018-03-31T19:46:19.177Z,5.70
2018-03-31T19:48:45.300Z,5.70
2018-03-31T19:51:11.402Z,5.70
2018-03-31T19:53:38.246Z,6.00
2018-03-31T19:56:05.098Z,6.00
2018-03-31T19:58:32.963Z,6.00
2018-03-31T20:00:59.826Z,5.90
2018-03-31T20:03:25.938Z,5.90
2018-03-31T20:05:52.040Z,5.90
2018-03-31T20:08:18.175Z,5.80
2018-03-31T20:10:44.285Z,5.70
2018-03-31T20:13:11.426Z,5.60
2018-03-31T20:15:37.523Z,5.50
2018-03-31T20:18:03.619Z,5.50
2018-03-31T20:20:29.743Z,5.50
2018-03-31T20:22:55.862Z,5.50
2018-03-31T20:25:21.948Z,5.60
2018-03-31T20:27:48.038Z,5.50
2018-03-31T20:30:14.184Z,5.50
2018-03-31T20:32:41.026Z,5.40
2018-03-31T20:35:07.906Z,5.50
2018-03-31T20:37:34.016Z,5.40
2018-03-31T20:40:00.851Z,5.50
2018-03-31T20:42:27.739Z,5.50
2018-03-31T20:44:54.578Z,5.50
2018-03-31T20:47:20.693Z,5.50
2018-03-31T20:49:46.787Z,5.50
2018-03-31T20:52:13.651Z,5.50
2018-03-31T20:54:39.758Z,5.40
2018-03-31T20:57:06.617Z,5.50
2018-03-31T20:59:32.702Z,5.50
2018-03-31T21:01:58.793Z,5.50
2018-03-31T21:04:24.906Z,5.50
2018-03-31T21:06:52.053Z,5.50
2018-03-31T21:09:18.171Z,5.50
2018-03-31T21:11:44.274Z,5.50
2018-03-31T21:14:11.122Z,5.40
2018-03-31T21:16:37.273Z,5.40
2018-03-31T21:19:04.064Z,5.50
2018-03-31T21:21:30.921Z,5.60
2018-03-31T21:23:57.746Z,5.60
2018-03-31T21:26:23.862Z,5.60
2018-03-31T21:28:50.690Z,5.30
2018-03-31T21:31:16.778Z,5.40
2018-03-31T21:33:42.896Z,5.40
2018-03-31T21:36:09.027Z,5.40
2018-03-31T21:38:35.155Z,5.40
2018-03-31T21:41:01.258Z,5.50
2018-03-31T21:43:28.126Z,5.50
2018-03-31T21:45:54.221Z,5.50
2018-03-31T21:48:21.066Z,5.40
2018-03-31T21:50:48.962Z,5.40
2018-03-31T21:53:15.085Z,5.40
2018-03-31T21:55:41.230Z,5.40
2018-03-31T21:58:07.348Z,5.40
2018-03-31T22:00:33.448Z,5.30
2018-03-31T22:03:00.291Z,5.30
2018-03-31T22:05:27.126Z,5.30
2018-03-31T22:07:53.987Z,5.30
2018-03-31T22:10:20.094Z,5.30
2018-03-31T22:12:46.965Z,5.20
2018-03-31T22:15:19.075Z,5.20
2018-03-31T22:17:45.194Z,5.20
2018-03-31T22:20:11.324Z,5.20
2018-03-31T22:22:37.468Z,5.10
2018-03-31T22:25:03.599Z,5.10
2018-03-31T22:27:30.458Z,5.10
2018-03-31T22:29:57.295Z,5.10
2018-03-31T22:32:24.750Z,5.00
2018-03-31T22:34:51.591Z,5.00
2018-03-31T22:37:18.487Z,4.90
2018-03-31T22:39:44.606Z,4.90
2018-03-31T22:42:10.747Z,4.90
2018-03-31T22:44:36.883Z,4.90
2018-03-31T22:47:03.001Z,4.90
2018-03-31T22:49:29.099Z,4.90
2018-03-31T22:51:55.227Z,4.90
2018-03-31T22:54:21.318Z,4.90
2018-03-31T22:56:48.182Z,4.90
2018-03-31T22:59:14.286Z,4.80
2018-03-31T23:01:41.148Z,4.90
2018-03-31T23:04:07.996Z,4.80
2018-03-31T23:06:34.099Z,4.80
2018-03-31T23:09:00.940Z,4.80
2018-03-31T23:11:27.031Z,4.80
2018-03-31T23:13:53.186Z,4.70
2018-03-31T23:16:21.836Z,4.60
2018-03-31T23:18:47.978Z,4.60
2018-03-31T23:21:14.079Z,4.60
2018-03-31T23:23:40.178Z,4.60
2018-03-31T23:26:07.020Z,4.50
2018-03-31T23:28:33.878Z,4.50
2018-03-31T23:31:00.010Z,4.50
2018-03-31T23:33:26.115Z,4.50
2018-03-31T23:35:52.965Z,4.50
2018-03-31T23:38:19.062Z,4.50
2018-03-31T23:40:45.206Z,4.40
2018-03-31T23:43:12.066Z,4.40
2018-03-31T23:45:38.197Z,4.40
2018-03-31T23:48:04.323Z,4.40
2018-03-31T23:50:30.420Z,4.30
2018-03-31T23:52:57.274Z,4.20
2018-03-31T23:55:24.134Z,4.20
2018-03-31T23:57:50.234Z,4.20
